Time;durP1;ratioP1;P1;durP2;ratioP2;P2;SDS_P1;SDS_P2;PMS_P1;PMS_P2;Temp;Humidity;BMP_temperature;BMP_pressure;BME280_temperature;BME280_humidity;BME280_pressure;Samples;Min_cycle;Max_cycle;Signal;HPM_P1;HPM_P2
2022/03/19 00:01:01;;;;;;;14.18;4.45;;;4.50;99.90;;;;;;5076546;28;20042;-66
2022/03/19 00:03:27;;;;;;;13.30;3.95;;;4.60;99.90;;;;;;5042273;28;20095;-66
2022/03/19 00:05:53;;;;;;;16.10;3.92;;;4.60;99.90;;;;;;5033945;28;20041;-66
2022/03/19 00:08:19;;;;;;;14.02;4.47;;;4.60;99.90;;;;;;5044543;28;20046;-66
2022/03/19 00:10:45;;;;;;;15.20;4.20;;;4.60;99.90;;;;;;5076031;28;20073;-66
2022/03/19 00:13:12;;;;;;;13.23;4.15;;;4.60;99.90;;;;;;5042894;28;20116;-66
2022/03/19 00:15:40;;;;;;;12.20;4.22;;;4.60;99.90;;;;;;5034184;28;20097;-66
2022/03/19 00:18:06;;;;;;;14.68;4.57;;;4.60;99.90;;;;;;5041801;28;20050;-66
2022/03/19 00:20:33;;;;;;;14.48;4.60;;;4.70;99.90;;;;;;5043782;28;20045;-66
2022/03/19 00:22:59;;;;;;;16.58;4.15;;;4.90;99.90;;;;;;5042084;28;20563;-66
2022/03/19 00:25:25;;;;;;;19.13;4.80;;;5.00;99.90;;;;;;5035658;28;20041;-66
2022/03/19 00:27:51;;;;;;;16.65;3.95;;;5.00;99.90;;;;;;5035952;28;20049;-66
2022/03/19 00:30:17;;;;;;;15.05;4.30;;;5.00;99.90;;;;;;5043711;28;20121;-66
2022/03/19 00:32:43;;;;;;;15.35;3.97;;;5.10;99.90;;;;;;5043668;28;20548;-66
2022/03/19 00:35:09;;;;;;;12.68;3.60;;;5.20;99.90;;;;;;5075039;28;20069;-66
2022/03/19 00:37:46;;;;;;;14.30;3.55;;;5.30;99.90;;;;;;5043406;28;20076;-66
2022/03/19 00:40:13;;;;;;;13.43;3.83;;;5.20;99.90;;;;;;5075296;28;20096;-66
2022/03/19 00:42:39;;;;;;;16.35;4.63;;;5.10;99.90;;;;;;5043263;28;20037;-66
2022/03/19 00:45:06;;;;;;;14.48;3.97;;;4.90;99.90;;;;;;5043833;28;20048;-66
2022/03/19 00:47:31;;;;;;;11.65;3.88;;;4.80;99.90;;;;;;5042258;28;20049;-66
2022/03/19 00:49:57;;;;;;;16.25;4.10;;;4.70;99.90;;;;;;5043033;28;20042;-66
2022/03/19 00:52:23;;;;;;;12.75;4.38;;;4.60;99.90;;;;;;5076500;28;20049;-66
2022/03/19 00:54:49;;;;;;;9.73;3.60;;;4.50;99.90;;;;;;5042588;28;20038;-66
2022/03/19 00:57:14;;;;;;;11.48;3.70;;;4.30;99.90;;;;;;5044427;28;20059;-66
2022/03/19 00:59:40;;;;;;;12.40;3.47;;;4.20;99.90;;;;;;5046311;28;20048;-66
2022/03/19 01:02:06;;;;;;;13.82;4.00;;;4.20;99.90;;;;;;5080457;28;20152;-66
2022/03/19 01:04:31;;;;;;;15.23;3.90;;;4.00;99.90;;;;;;5047747;28;20050;-65
2022/03/19 01:06:57;;;;;;;12.52;4.25;;;4.00;99.90;;;;;;5048263;28;20189;-66
2022/03/19 01:09:23;;;;;;;11.05;3.90;;;4.00;99.90;;;;;;5046151;28;20069;-65
2022/03/19 01:11:48;;;;;;;16.48;4.90;;;4.00;99.90;;;;;;5047097;28;20044;-66
2022/03/19 01:14:14;;;;;;;12.23;3.85;;;4.00;99.90;;;;;;5045419;28;20054;-66
2022/03/19 01:16:40;;;;;;;12.73;4.40;;;4.00;99.90;;;;;;5072686;28;20498;-66
2022/03/19 01:19:06;;;;;;;10.98;3.50;;;4.00;99.90;;;;;;5047549;28;20046;-66
2022/03/19 01:21:32;;;;;;;11.63;3.90;;;3.90;99.90;;;;;;5038824;28;20048;-66
2022/03/19 01:23:57;;;;;;;14.68;4.22;;;3.90;99.90;;;;;;5046491;28;20328;-66
2022/03/19 01:26:24;;;;;;;11.57;4.95;;;3.80;99.90;;;;;;5045095;28;20509;-66
2022/03/19 01:28:50;;;;;;;13.55;4.07;;;3.70;99.90;;;;;;5046712;28;20042;-65
2022/03/19 01:31:15;;;;;;;11.77;3.30;;;3.40;99.90;;;;;;5039486;28;20480;-66
2022/03/19 01:33:41;;;;;;;14.18;4.45;;;3.30;99.90;;;;;;5044249;28;20128;-66
2022/03/19 01:36:07;;;;;;;13.93;4.30;;;3.20;99.90;;;;;;5043860;28;20045;-66
2022/03/19 01:38:33;;;;;;;13.80;3.83;;;3.20;99.90;;;;;;5078691;28;20046;-65
2022/03/19 01:41:00;;;;;;;12.98;4.53;;;3.10;99.90;;;;;;5039526;28;20040;-65
2022/03/19 01:43:25;;;;;;;11.32;3.95;;;3.00;99.90;;;;;;5046354;28;20060;-65
2022/03/19 01:45:51;;;;;;;15.50;4.82;;;3.10;99.90;;;;;;5046296;28;20075;-65
2022/03/19 01:48:17;;;;;;;11.13;3.63;;;3.10;99.90;;;;;;5037364;28;20033;-65
2022/03/19 01:50:42;;;;;;;12.50;4.05;;;3.00;99.90;;;;;;5034008;28;20053;-65
2022/03/19 01:53:08;;;;;;;14.43;3.80;;;3.00;99.90;;;;;;5045832;28;20041;-65
2022/03/19 01:55:34;;;;;;;9.75;3.25;;;3.00;99.90;;;;;;5031091;28;20108;-65
2022/03/19 01:58:01;;;;;;;13.32;4.22;;;2.80;99.90;;;;;;5042106;28;20053;-65
2022/03/19 02:00:28;;;;;;;7.32;2.97;;;2.60;99.90;;;;;;5044647;28;20398;-65
2022/03/19 02:02:54;;;;;;;10.73;3.83;;;2.50;99.90;;;;;;5046337;28;20060;-65
2022/03/19 02:05:23;;;;;;;14.13;4.40;;;2.40;99.90;;;;;;5039441;28;20472;-65
2022/03/19 02:07:50;;;;;;;11.73;3.60;;;2.40;99.90;;;;;;5075526;28;20037;-65
2022/03/19 02:10:17;;;;;;;11.30;3.95;;;2.50;99.90;;;;;;5038717;28;20124;-65
2022/03/19 02:12:44;;;;;;;10.60;4.43;;;2.40;99.90;;;;;;5045531;28;20049;-65
2022/03/19 02:15:12;;;;;;;9.13;4.13;;;2.40;99.90;;;;;;5075527;28;20069;-65
2022/03/19 02:17:38;;;;;;;12.68;3.90;;;2.50;99.90;;;;;;5045324;28;20049;-65
2022/03/19 02:20:05;;;;;;;14.40;4.35;;;2.40;99.90;;;;;;5046865;28;20042;-65
2022/03/19 02:22:31;;;;;;;16.50;4.47;;;2.30;99.90;;;;;;5041909;28;20053;-65
2022/03/19 02:27:43;;;;;;;13.82;4.03;;;2.30;99.90;;;;;;5045260;28;20048;-65
2022/03/19 02:30:11;;;;;;;13.50;4.35;;;2.40;99.90;;;;;;5046013;28;20414;-65
2022/03/19 02:32:42;;;;;;;14.13;4.30;;;2.30;99.90;;;;;;5045814;28;20056;-65
2022/03/19 02:35:08;;;;;;;8.38;3.85;;;2.30;99.90;;;;;;5045911;28;20657;-65
2022/03/19 02:37:52;;;;;;;9.45;3.78;;;2.30;99.90;;;;;;5044015;28;20053;-64
2022/03/19 02:40:19;;;;;;;13.25;3.80;;;2.10;99.90;;;;;;5044803;28;20081;-64
2022/03/19 02:42:56;;;;;;;7.00;2.95;;;2.00;99.90;;;;;;5044256;28;20062;-64
2022/03/19 02:45:23;;;;;;;10.65;3.50;;;2.10;99.90;;;;;;5046374;28;20116;-64
2022/03/19 02:47:58;;;;;;;15.80;4.75;;;2.00;99.90;;;;;;5038585;28;20049;-64
2022/03/19 02:50:35;;;;;;;14.05;4.05;;;2.00;99.90;;;;;;5040356;28;20045;-64
2022/03/19 02:53:08;;;;;;;15.00;3.45;;;2.20;99.90;;;;;;5044115;28;20486;-65
2022/03/19 02:55:39;;;;;;;10.73;3.90;;;2.30;99.90;;;;;;5044931;28;20077;-64
2022/03/19 02:58:06;;;;;;;17.88;4.07;;;2.40;99.90;;;;;;5044498;28;20417;-65
2022/03/19 03:00:32;;;;;;;9.15;3.70;;;2.30;99.90;;;;;;5043500;28;20076;-64
2022/03/19 03:02:58;;;;;;;15.48;4.45;;;2.20;99.90;;;;;;5077339;28;20232;-65
2022/03/19 03:05:23;;;;;;;8.90;3.88;;;2.30;99.90;;;;;;5036085;28;20117;-65
2022/03/19 03:07:49;;;;;;;11.40;3.50;;;2.10;99.90;;;;;;5038627;28;20048;-65
2022/03/19 03:10:16;;;;;;;14.77;4.55;;;2.10;99.90;;;;;;5043366;28;20049;-65
2022/03/19 03:12:43;;;;;;;9.00;3.83;;;2.10;99.90;;;;;;5044207;28;20029;-64
2022/03/19 03:15:09;;;;;;;11.93;4.10;;;2.00;99.90;;;;;;5044421;28;20508;-64
2022/03/19 03:17:35;;;;;;;11.15;4.00;;;2.10;99.90;;;;;;5037973;28;20057;-64
2022/03/19 03:20:02;;;;;;;11.25;4.07;;;2.20;99.90;;;;;;5043560;28;20136;-64
2022/03/19 03:22:29;;;;;;;13.35;4.10;;;2.20;99.90;;;;;;5043316;28;20092;-64
2022/03/19 03:24:55;;;;;;;13.98;4.00;;;2.00;99.90;;;;;;5037289;28;20037;-64
2022/03/19 03:27:21;;;;;;;19.38;5.68;;;1.90;99.90;;;;;;5045189;28;20042;-65
2022/03/19 03:29:47;;;;;;;13.40;4.30;;;2.00;99.90;;;;;;5043551;28;20041;-65
2022/03/19 03:32:12;;;;;;;13.70;4.28;;;2.10;99.90;;;;;;5070194;28;20042;-65
2022/03/19 03:34:39;;;;;;;18.55;3.67;;;2.10;99.90;;;;;;5074328;28;20070;-65
2022/03/19 03:37:05;;;;;;;13.30;4.70;;;2.10;99.90;;;;;;5042850;28;20079;-65
2022/03/19 03:39:30;;;;;;;12.32;4.65;;;2.10;99.90;;;;;;5038027;28;20069;-65
2022/03/19 03:41:56;;;;;;;14.82;4.60;;;2.10;99.90;;;;;;5039707;28;20041;-64
2022/03/19 03:44:21;;;;;;;9.00;3.78;;;2.10;99.90;;;;;;5042928;28;20105;-64
2022/03/19 03:46:48;;;;;;;12.07;4.13;;;2.10;99.90;;;;;;5044355;28;20048;-64
2022/03/19 03:49:14;;;;;;;16.75;5.68;;;2.10;99.90;;;;;;5030764;28;20094;-64
2022/03/19 03:51:40;;;;;;;11.60;4.60;;;2.10;99.90;;;;;;5044749;28;20405;-64
2022/03/19 03:54:08;;;;;;;14.77;4.97;;;2.10;99.90;;;;;;5045103;28;20049;-65
2022/03/19 03:56:34;;;;;;;9.45;3.83;;;2.20;99.90;;;;;;5077387;28;20096;-64
2022/03/19 03:59:00;;;;;;;16.30;3.95;;;2.20;99.90;;;;;;5038448;28;20046;-64
2022/03/19 04:01:26;;;;;;;15.48;4.88;;;2.30;99.90;;;;;;5036048;28;20132;-64
2022/03/19 04:03:52;;;;;;;14.18;4.82;;;2.30;99.90;;;;;;5036172;28;20406;-64
2022/03/19 04:06:17;;;;;;;18.85;5.03;;;2.10;99.90;;;;;;5042526;28;20191;-65
2022/03/19 04:08:43;;;;;;;12.55;5.07;;;2.20;99.90;;;;;;5044967;28;20045;-65
2022/03/19 04:11:09;;;;;;;10.57;4.43;;;2.20;99.90;;;;;;5043763;28;20060;-64
2022/03/19 04:13:34;;;;;;;13.32;4.18;;;2.20;99.90;;;;;;5035002;28;20061;-65
2022/03/19 04:16:00;;;;;;;9.73;4.00;;;2.20;99.90;;;;;;5043599;28;20052;-65
2022/03/19 04:18:26;;;;;;;11.55;4.15;;;2.10;99.90;;;;;;5043263;28;20057;-65
2022/03/19 04:20:53;;;;;;;14.60;4.55;;;2.00;99.90;;;;;;5042222;28;20044;-64
2022/03/19 04:23:20;;;;;;;12.93;5.22;;;1.90;99.90;;;;;;5044393;28;20041;-65
2022/03/19 04:25:46;;;;;;;13.40;4.93;;;2.00;99.90;;;;;;5037355;28;20034;-65
2022/03/19 04:28:12;;;;;;;14.20;4.93;;;2.00;99.90;;;;;;5042828;28;20053;-65
2022/03/19 04:30:40;;;;;;;11.73;4.10;;;2.00;99.90;;;;;;5035922;28;20045;-65
2022/03/19 04:33:06;;;;;;;10.85;4.57;;;2.00;99.90;;;;;;5073033;28;20049;-65
2022/03/19 04:38:19;;;;;;;14.85;4.50;;;1.70;99.90;;;;;;5047466;28;20076;-65
2022/03/19 04:40:46;;;;;;;14.50;5.20;;;1.80;99.90;;;;;;5046271;28;20048;-65
2022/03/19 04:43:12;;;;;;;15.77;5.57;;;1.80;99.90;;;;;;5042020;28;20076;-65
2022/03/19 04:45:39;;;;;;;14.73;4.75;;;1.70;99.90;;;;;;5043516;28;20034;-64
2022/03/19 04:48:06;;;;;;;13.05;4.32;;;1.70;99.90;;;;;;5041109;28;20041;-65
2022/03/19 04:50:36;;;;;;;14.63;5.05;;;1.70;99.90;;;;;;5079269;28;20034;-65
2022/03/19 04:53:03;;;;;;;12.82;4.90;;;1.70;99.90;;;;;;5079817;28;20061;-65
2022/03/19 04:55:28;;;;;;;11.95;5.65;;;1.60;99.90;;;;;;5046213;28;20050;-65
2022/03/19 04:57:54;;;;;;;16.75;5.80;;;1.70;99.90;;;;;;5047278;28;20081;-65
2022/03/19 05:00:21;;;;;;;15.23;5.25;;;1.80;99.90;;;;;;5037474;28;20057;-65
2022/03/19 05:02:47;;;;;;;18.42;4.95;;;1.80;99.90;;;;;;5045541;28;20045;-65
2022/03/19 05:05:13;;;;;;;11.40;4.93;;;1.90;99.90;;;;;;5040291;28;20045;-65
2022/03/19 05:07:39;;;;;;;15.50;5.78;;;1.80;99.90;;;;;;5048349;28;20042;-65
2022/03/19 05:12:52;;;;;;;17.77;5.68;;;1.70;99.90;;;;;;5042594;28;20045;-65
2022/03/19 05:15:18;;;;;;;10.60;5.28;;;2.00;99.90;;;;;;5040621;28;20288;-65
2022/03/19 05:17:45;;;;;;;16.42;5.45;;;1.90;99.90;;;;;;5046411;28;20042;-65
2022/03/19 05:20:11;;;;;;;15.93;5.60;;;2.00;99.90;;;;;;5042385;28;20054;-65
2022/03/19 05:22:38;;;;;;;12.88;5.80;;;1.90;99.90;;;;;;5043063;28;20124;-65
2022/03/19 05:25:05;;;;;;;15.07;6.10;;;1.90;99.90;;;;;;5040191;28;20100;-65
2022/03/19 05:27:31;;;;;;;13.00;5.70;;;1.80;99.90;;;;;;5045150;28;20057;-65
2022/03/19 05:29:56;;;;;;;18.52;6.32;;;2.00;99.90;;;;;;5046609;28;20523;-65
2022/03/19 05:32:22;;;;;;;15.32;6.75;;;2.00;99.90;;;;;;5046121;28;20041;-63
2022/03/19 05:34:49;;;;;;;21.90;8.07;;;2.10;99.90;;;;;;5046348;28;20053;-64
2022/03/19 05:37:15;;;;;;;18.15;6.40;;;2.00;99.90;;;;;;5042517;28;20049;-65
2022/03/19 05:39:42;;;;;;;18.10;7.00;;;2.30;99.90;;;;;;5069610;28;20038;-64
2022/03/19 05:42:08;;;;;;;22.15;7.40;;;2.30;99.90;;;;;;5046588;28;20045;-65
2022/03/19 05:44:34;;;;;;;18.15;7.38;;;2.20;99.90;;;;;;5045109;28;20053;-65
2022/03/19 05:47:01;;;;;;;16.58;7.40;;;2.40;99.90;;;;;;5046751;28;20048;-65
2022/03/19 05:49:28;;;;;;;15.60;6.45;;;2.50;99.90;;;;;;5079214;28;20053;-65
2022/03/19 05:51:55;;;;;;;17.67;7.30;;;2.50;99.90;;;;;;5045717;28;20077;-65
2022/03/19 05:54:20;;;;;;;18.50;6.70;;;2.40;99.90;;;;;;5046548;28;20049;-65
2022/03/19 05:56:46;;;;;;;18.02;7.43;;;2.50;99.90;;;;;;5046748;28;20045;-65
2022/03/19 05:59:12;;;;;;;15.48;6.53;;;2.60;99.90;;;;;;5046654;28;20047;-65
2022/03/19 06:01:39;;;;;;;18.75;6.85;;;2.70;99.90;;;;;;5047000;28;20145;-65
2022/03/19 06:04:05;;;;;;;20.25;7.60;;;2.50;99.90;;;;;;5046641;28;20061;-65
2022/03/19 06:06:31;;;;;;;17.95;7.13;;;2.70;99.90;;;;;;5045767;28;20037;-65
2022/03/19 06:08:57;;;;;;;17.40;6.80;;;2.50;99.90;;;;;;5045668;28;20050;-65
2022/03/19 06:11:23;;;;;;;19.30;7.05;;;2.70;99.90;;;;;;5046532;28;20061;-64
2022/03/19 06:13:49;;;;;;;20.25;7.93;;;2.80;99.90;;;;;;5045158;28;20049;-65
2022/03/19 06:16:15;;;;;;;20.02;7.65;;;2.90;99.90;;;;;;5046970;28;20496;-65
2022/03/19 06:18:46;;;;;;;18.77;7.30;;;2.70;99.90;;;;;;5046139;28;20053;-65
2022/03/19 06:21:13;;;;;;;19.52;7.55;;;2.60;99.90;;;;;;5027095;28;20464;-65
2022/03/19 06:23:38;;;;;;;18.20;6.90;;;2.60;99.90;;;;;;5033587;28;20041;-65
2022/03/19 06:26:04;;;;;;;19.70;7.45;;;2.80;99.90;;;;;;5046304;28;20096;-65
2022/03/19 06:28:30;;;;;;;19.45;7.80;;;2.70;99.90;;;;;;5044892;28;20050;-65
2022/03/19 06:30:55;;;;;;;16.33;7.07;;;2.80;99.90;;;;;;5046240;28;20080;-65
2022/03/19 06:33:21;;;;;;;17.15;7.93;;;2.90;99.90;;;;;;5045064;28;20068;-65
2022/03/19 06:38:32;;;;;;;24.50;7.85;;;2.90;99.90;;;;;;5046189;28;20088;-65
2022/03/19 06:40:59;;;;;;;16.65;6.55;;;3.00;99.90;;;;;;5045957;28;20049;-65
2022/03/19 06:43:26;;;;;;;20.75;7.93;;;3.00;99.90;;;;;;5045467;28;20046;-65
2022/03/19 06:45:54;;;;;;;17.23;7.07;;;3.00;99.90;;;;;;5044075;28;20049;-65
2022/03/19 06:48:20;;;;;;;17.23;7.38;;;3.30;99.90;;;;;;5046189;28;20049;-65
2022/03/19 06:50:46;;;;;;;22.15;8.32;;;3.20;99.90;;;;;;5044562;28;20053;-65
2022/03/19 06:53:12;;;;;;;16.70;7.93;;;3.30;99.90;;;;;;5045279;28;20060;-64
2022/03/19 06:55:38;;;;;;;21.35;8.38;;;3.30;99.90;;;;;;5045086;28;20040;-65
2022/03/19 06:58:04;;;;;;;23.27;8.48;;;3.60;99.90;;;;;;5044321;28;20041;-65
2022/03/19 07:00:29;;;;;;;22.40;9.02;;;3.50;99.90;;;;;;5043658;28;20041;-65
2022/03/19 07:02:55;;;;;;;20.55;8.70;;;3.70;99.90;;;;;;5043877;28;20109;-65
2022/03/19 07:05:26;;;;;;;29.50;8.55;;;3.90;99.90;;;;;;5044909;28;20045;-65
2022/03/19 07:07:53;;;;;;;16.23;8.43;;;4.10;99.90;;;;;;5044288;28;20053;-65
2022/03/19 07:10:19;;;;;;;24.92;9.20;;;4.20;99.90;;;;;;5045474;28;20049;-65
2022/03/19 07:12:50;;;;;;;22.85;9.25;;;4.10;99.90;;;;;;5044128;28;20053;-65
2022/03/19 07:15:19;;;;;;;19.35;7.90;;;4.50;99.90;;;;;;5045342;28;20069;-65
2022/03/19 07:17:45;;;;;;;25.17;8.40;;;4.70;99.90;;;;;;5043788;28;20053;-64
2022/03/19 07:20:14;;;;;;;24.38;8.13;;;4.80;99.90;;;;;;5043694;28;20113;-64
2022/03/19 07:22:55;;;;;;;24.23;9.05;;;5.10;99.90;;;;;;5043954;28;20053;-64
2022/03/19 07:25:24;;;;;;;20.17;8.48;;;5.20;99.90;;;;;;5025113;28;20107;-64
2022/03/19 07:27:51;;;;;;;20.70;8.98;;;5.20;99.90;;;;;;5025186;28;20049;-64
2022/03/19 07:30:17;;;;;;;23.90;9.93;;;5.30;99.90;;;;;;5024318;28;20077;-64
2022/03/19 07:32:43;;;;;;;23.83;9.05;;;5.40;99.90;;;;;;5025310;28;20057;-65
2022/03/19 07:35:10;;;;;;;28.27;9.93;;;5.60;99.90;;;;;;5040986;28;20061;-65
2022/03/19 07:37:40;;;;;;;24.00;9.68;;;5.70;99.90;;;;;;5043792;28;20077;-64
2022/03/19 07:40:07;;;;;;;24.08;8.82;;;5.80;99.90;;;;;;5025316;28;20041;-65
2022/03/19 07:42:34;;;;;;;21.33;10.88;;;5.90;99.90;;;;;;5007790;28;20053;-67
2022/03/19 07:45:00;;;;;;;24.38;8.05;;;6.00;99.90;;;;;;5041810;28;20107;-67
2022/03/19 07:47:26;;;;;;;24.75;9.80;;;6.00;99.90;;;;;;5042702;28;20062;-67
2022/03/19 07:49:51;;;;;;;20.80;8.13;;;6.20;99.90;;;;;;5042843;28;20064;-67
2022/03/19 07:52:17;;;;;;;25.30;8.57;;;6.40;99.90;;;;;;5035262;28;20084;-67
2022/03/19 07:54:43;;;;;;;18.50;8.13;;;6.50;99.90;;;;;;5044283;28;20044;-67
2022/03/19 07:57:10;;;;;;;23.17;8.68;;;6.50;99.90;;;;;;5044100;28;20050;-67
2022/03/19 07:59:37;;;;;;;24.90;9.30;;;6.50;99.90;;;;;;5044351;28;20033;-66
2022/03/19 08:02:04;;;;;;;17.40;7.85;;;6.70;99.90;;;;;;5044089;28;20037;-66
2022/03/19 08:04:30;;;;;;;22.00;8.43;;;6.60;99.90;;;;;;5042343;28;20046;-66
2022/03/19 08:06:56;;;;;;;24.02;7.93;;;6.70;99.90;;;;;;5042128;28;20050;-67
2022/03/19 08:09:25;;;;;;;22.52;7.85;;;6.60;99.90;;;;;;5042123;28;20124;-67
2022/03/19 08:11:52;;;;;;;20.55;8.23;;;6.70;99.90;;;;;;5042481;28;20037;-67
2022/03/19 08:14:19;;;;;;;16.25;7.15;;;6.80;99.90;;;;;;5044225;28;20064;-67
2022/03/19 08:16:46;;;;;;;20.08;6.53;;;6.90;99.90;;;;;;5042826;28;20107;-66
2022/03/19 08:19:14;;;;;;;17.67;6.47;;;7.00;99.90;;;;;;5041109;28;20066;-67
2022/03/19 08:21:43;;;;;;;20.13;7.10;;;7.00;99.90;;;;;;5039452;28;20049;-67
2022/03/19 08:24:10;;;;;;;15.85;5.60;;;7.10;99.90;;;;;;5042423;28;20195;-67
2022/03/19 08:26:36;;;;;;;18.25;7.18;;;7.20;99.90;;;;;;5042364;28;20045;-67
2022/03/19 08:29:02;;;;;;;18.02;5.82;;;7.30;99.90;;;;;;5044015;28;20034;-67
2022/03/19 08:31:28;;;;;;;16.75;5.25;;;7.40;99.90;;;;;;5044303;28;20763;-68
2022/03/19 08:33:56;;;;;;;18.65;5.63;;;7.40;99.90;;;;;;5073548;28;20465;-67
2022/03/19 08:36:22;;;;;;;16.77;5.10;;;7.50;99.90;;;;;;5044277;28;20066;-67
2022/03/19 08:41:33;;;;;;;24.10;6.25;;;7.80;99.90;;;;;;5044221;28;20072;-67
2022/03/19 08:43:58;;;;;;;25.20;6.82;;;7.90;99.90;;;;;;5040305;28;20057;-67
2022/03/19 08:46:25;;;;;;;12.88;4.63;;;8.10;99.90;;;;;;5031967;28;20042;-67
2022/03/19 08:48:51;;;;;;;22.48;4.85;;;8.30;99.90;;;;;;5042322;28;20049;-67
2022/03/19 08:54:03;;;;;;;17.55;4.35;;;8.40;99.90;;;;;;5038954;28;20072;-72
2022/03/19 08:56:30;;;;;;;16.73;4.18;;;8.30;99.90;;;;;;5041444;28;20067;-67
2022/03/19 08:58:56;;;;;;;14.68;4.28;;;8.40;99.90;;;;;;5075303;28;20057;-67
2022/03/19 09:01:22;;;;;;;15.57;3.67;;;8.40;99.90;;;;;;5035904;28;20041;-67
2022/03/19 09:03:48;;;;;;;14.70;3.78;;;8.40;99.90;;;;;;5034642;28;20049;-67
2022/03/19 09:06:14;;;;;;;12.63;3.45;;;8.40;99.90;;;;;;5041419;28;20053;-66
2022/03/19 09:08:41;;;;;;;14.82;3.95;;;8.60;99.90;;;;;;5043342;28;20049;-67
2022/03/19 09:11:07;;;;;;;15.85;4.70;;;8.60;99.90;;;;;;5075023;28;20052;-67
2022/03/19 09:13:33;;;;;;;13.57;4.43;;;8.80;99.90;;;;;;5042254;28;20041;-67
2022/03/19 09:15:59;;;;;;;12.00;3.63;;;8.80;99.90;;;;;;5042469;28;20045;-67
2022/03/19 09:18:26;;;;;;;12.43;3.35;;;9.00;99.90;;;;;;5041052;28;20068;-67
2022/03/19 09:20:52;;;;;;;15.15;4.32;;;9.10;99.90;;;;;;5059002;28;20049;-67
2022/03/19 09:23:18;;;;;;;10.25;4.15;;;9.30;99.90;;;;;;5040966;28;20445;-66
2022/03/19 09:25:43;;;;;;;12.02;3.65;;;9.40;99.90;;;;;;5046098;28;20068;-65
2022/03/19 09:28:09;;;;;;;16.88;3.40;;;9.40;99.90;;;;;;5044651;28;20036;-66
2022/03/19 09:30:35;;;;;;;11.95;3.35;;;9.50;99.90;;;;;;5046998;28;20050;-66
2022/03/19 09:33:01;;;;;;;13.57;3.67;;;9.50;99.90;;;;;;5038685;28;20041;-67
2022/03/19 09:35:27;;;;;;;15.05;3.60;;;9.50;99.90;;;;;;5046195;28;20404;-67
2022/03/19 09:37:52;;;;;;;12.43;3.25;;;9.50;99.90;;;;;;5015445;28;20091;-66
2022/03/19 09:40:19;;;;;;;9.35;2.65;;;9.60;99.90;;;;;;5046434;28;20041;-66
2022/03/19 09:42:53;;;;;;;9.98;3.45;;;9.70;99.90;;;;;;5045845;28;20387;-66
2022/03/19 09:45:21;;;;;;;11.73;2.90;;;9.70;99.90;;;;;;5046371;28;20053;-67
2022/03/19 09:47:48;;;;;;;11.38;3.22;;;9.70;99.90;;;;;;5044710;28;20072;-66
2022/03/19 09:50:14;;;;;;;9.20;3.65;;;9.70;99.90;;;;;;5045116;28;20049;-66
2022/03/19 09:52:43;;;;;;;10.80;2.97;;;9.80;99.90;;;;;;5045636;28;20053;-67
2022/03/19 09:55:15;;;;;;;12.90;3.00;;;9.70;99.90;;;;;;5047705;28;20049;-66
2022/03/19 09:57:41;;;;;;;10.02;3.28;;;9.80;99.90;;;;;;5043639;28;20105;-66
2022/03/19 10:00:07;;;;;;;16.35;3.92;;;9.80;99.90;;;;;;5079933;28;20045;-66
2022/03/19 10:02:33;;;;;;;8.52;2.85;;;9.90;99.90;;;;;;5036985;28;20124;-66
2022/03/19 10:08:35;;;;;;;17.20;4.18;;;9.90;99.90;;;;;;5035004;28;20046;-65
2022/03/19 10:10:33;;;;;;;11.95;3.33;;;10.20;99.90;;;;;;5041839;28;20056;-65
2022/03/19 10:12:59;;;;;;;10.77;3.00;;;10.30;99.90;;;;;;5077053;28;20049;-65
2022/03/19 10:15:27;;;;;;;13.05;3.53;;;10.40;99.90;;;;;;5077324;28;20509;-65
2022/03/19 10:18:01;;;;;;;9.65;3.05;;;10.50;99.90;;;;;;5044116;28;20049;-65
2022/03/19 10:20:27;;;;;;;10.20;2.67;;;10.50;99.90;;;;;;5077259;28;20046;-66
2022/03/19 10:22:57;;;;;;;8.60;2.85;;;10.70;99.90;;;;;;5039838;28;20053;-65
2022/03/19 10:25:23;;;;;;;11.75;2.70;;;10.70;99.90;;;;;;5045386;28;20443;-64
2022/03/19 10:27:48;;;;;;;10.43;2.38;;;10.60;99.90;;;;;;5045214;28;20041;-67
2022/03/19 10:30:19;;;;;;;12.00;3.80;;;10.60;99.90;;;;;;5077079;28;20060;-67
2022/03/19 10:32:53;;;;;;;6.93;2.92;;;10.90;99.90;;;;;;5044230;28;20052;-66
2022/03/19 10:35:29;;;;;;;12.05;3.00;;;10.80;99.90;;;;;;5044864;28;20049;-66
2022/03/19 10:37:56;;;;;;;8.07;3.25;;;10.80;99.90;;;;;;5043384;28;20057;-66
2022/03/19 10:40:22;;;;;;;7.60;2.80;;;11.00;99.90;;;;;;5044155;28;20038;-67
2022/03/19 10:42:56;;;;;;;10.60;2.72;;;11.10;99.90;;;;;;5045621;28;20144;-66
2022/03/19 10:45:23;;;;;;;10.07;2.80;;;11.20;99.90;;;;;;5043940;28;20041;-66
2022/03/19 10:47:48;;;;;;;5.93;2.20;;;11.30;99.90;;;;;;5039842;28;20045;-71
2022/03/19 10:50:23;;;;;;;8.30;2.20;;;11.20;99.90;;;;;;5002885;28;20163;-74
2022/03/19 10:52:51;;;;;;;5.05;1.77;;;11.20;99.90;;;;;;5021472;28;20061;-72
2022/03/19 10:55:17;;;;;;;6.65;2.13;;;11.30;99.90;;;;;;5044123;28;20055;-71
2022/03/19 10:57:44;;;;;;;6.88;2.30;;;11.40;99.90;;;;;;5027854;28;20061;-72
2022/03/19 11:00:11;;;;;;;5.32;2.03;;;11.50;99.90;;;;;;5079571;28;20049;-73
2022/03/19 11:02:48;;;;;;;6.90;2.58;;;11.50;99.90;;;;;;5036984;28;20052;-69
2022/03/19 11:05:18;;;;;;;6.13;2.17;;;11.80;99.90;;;;;;5047153;28;20136;-68
2022/03/19 11:07:45;;;;;;;7.72;2.40;;;11.90;99.90;;;;;;5033663;28;20052;-68
2022/03/19 11:10:11;;;;;;;7.65;2.40;;;11.90;99.90;;;;;;5082892;28;20053;-68
2022/03/19 11:12:42;;;;;;;7.22;2.42;;;12.00;99.90;;;;;;5029314;28;20041;-69
2022/03/19 11:15:13;;;;;;;8.02;2.00;;;12.20;99.90;;;;;;5076997;28;20199;-69
2022/03/19 11:17:40;;;;;;;6.25;2.28;;;12.20;99.90;;;;;;5082348;28;20077;-69
2022/03/19 11:20:11;;;;;;;6.00;2.10;;;12.20;99.90;;;;;;5051548;28;20061;-68
2022/03/19 11:22:44;;;;;;;5.03;2.03;;;12.00;99.90;;;;;;5016395;28;20036;-70
2022/03/19 11:25:13;;;;;;;7.28;2.65;;;12.30;99.90;;;;;;5068764;28;20071;-68
2022/03/19 11:27:42;;;;;;;6.30;2.30;;;12.40;99.90;;;;;;5082980;28;20048;-68
2022/03/19 11:30:21;;;;;;;5.93;2.30;;;12.40;99.90;;;;;;5040475;28;20148;-68
2022/03/19 11:33:10;;;;;;;8.93;2.40;;;12.30;99.90;;;;;;5035347;28;20045;-68
2022/03/19 11:35:38;;;;;;;6.53;1.98;;;12.40;99.90;;;;;;5046333;28;20092;-69
2022/03/19 11:38:15;;;;;;;4.82;1.75;;;12.60;99.90;;;;;;5014017;28;20049;-73
2022/03/19 11:40:45;;;;;;;6.65;2.20;;;12.80;99.90;;;;;;5045989;28;20042;-72
2022/03/19 11:43:16;;;;;;;6.68;2.80;;;12.60;99.90;;;;;;5020003;28;20060;-71
2022/03/19 11:46:06;;;;;;;7.35;2.33;;;12.60;99.90;;;;;;5043333;28;20072;-71
2022/03/19 11:48:34;;;;;;;4.88;1.90;;;12.80;99.90;;;;;;5013526;28;20589;-69
2022/03/19 11:51:22;;;;;;;4.00;1.92;;;12.90;99.90;;;;;;5028434;28;20060;-68
2022/03/19 11:54:12;;;;;;;7.80;2.05;;;12.90;99.90;;;;;;5036669;28;20444;-67
2022/03/19 11:56:41;;;;;;;7.53;1.90;;;12.90;99.90;;;;;;5033378;28;20045;-67
2022/03/19 11:59:13;;;;;;;6.85;1.65;;;12.90;99.90;;;;;;5023696;28;20076;-67
2022/03/19 12:01:54;;;;;;;8.93;2.28;;;13.10;99.90;;;;;;5030641;28;20036;-67
2022/03/19 12:04:24;;;;;;;6.35;1.90;;;13.00;99.90;;;;;;5063086;28;20114;-67
2022/03/19 12:06:58;;;;;;;6.00;1.75;;;13.10;98.80;;;;;;5049404;28;20117;-67
2022/03/19 12:09:52;;;;;;;6.05;1.95;;;13.10;98.90;;;;;;5058091;28;20040;-67
2022/03/19 12:12:24;;;;;;;4.82;1.88;;;13.10;99.20;;;;;;5033525;28;20372;-68
2022/03/19 12:14:50;;;;;;;4.15;1.73;;;13.10;99.90;;;;;;5073523;28;20057;-69
2022/03/19 12:17:26;;;;;;;4.47;1.80;;;13.10;99.40;;;;;;5033511;28;20099;-70
2022/03/19 12:20:04;;;;;;;2.85;1.48;;;13.30;96.70;;;;;;5064141;28;20045;-72
2022/03/19 12:22:33;;;;;;;6.53;1.60;;;13.50;94.20;;;;;;5034719;28;20061;-74
2022/03/19 12:25:20;;;;;;;2.83;1.55;;;13.70;91.80;;;;;;5040996;28;20057;-70
2022/03/19 12:27:54;;;;;;;6.35;1.90;;;13.60;92.40;;;;;;5027431;28;20140;-70
2022/03/19 12:30:24;;;;;;;3.72;1.60;;;13.70;93.40;;;;;;5035377;28;20046;-70
2022/03/19 12:32:54;;;;;;;6.60;2.20;;;13.80;92.50;;;;;;5043032;28;20057;-73
2022/03/19 12:35:44;;;;;;;5.10;2.85;;;14.00;91.20;;;;;;5048571;28;20053;-73
2022/03/19 12:38:10;;;;;;;6.47;2.30;;;13.90;88.30;;;;;;5024514;28;20504;-75
2022/03/19 12:43:22;;;;;;;5.60;3.25;;;14.10;83.50;;;;;;5032333;28;20040;-71
2022/03/19 12:45:50;;;;;;;5.63;1.85;;;14.20;89.20;;;;;;5077921;28;20055;-72
2022/03/19 12:48:21;;;;;;;6.47;2.28;;;14.30;88.90;;;;;;5050468;28;20122;-76
2022/03/19 12:50:55;;;;;;;4.55;2.00;;;14.40;85.20;;;;;;5037005;28;20497;-72
2022/03/19 12:53:38;;;;;;;3.05;1.48;;;14.50;88.80;;;;;;5015353;28;20049;-73
2022/03/19 12:56:11;;;;;;;3.55;1.50;;;14.40;87.30;;;;;;5049886;28;20045;-73
2022/03/19 12:58:38;;;;;;;4.00;1.48;;;14.40;87.10;;;;;;5046207;28;20386;-71
2022/03/19 13:01:06;;;;;;;5.35;1.48;;;14.50;85.00;;;;;;5072117;28;20067;-69
2022/03/19 13:03:32;;;;;;;6.43;1.90;;;14.70;82.30;;;;;;5089291;28;20185;-69
2022/03/19 13:05:58;;;;;;;4.35;1.50;;;14.50;83.70;;;;;;5069475;28;20049;-69
2022/03/19 13:08:23;;;;;;;6.63;2.03;;;14.90;84.30;;;;;;5052628;28;20127;-70
2022/03/19 13:10:52;;;;;;;4.20;1.50;;;15.50;80.30;;;;;;5052452;28;20064;-73
2022/03/19 13:13:18;;;;;;;4.95;1.90;;;16.20;79.10;;;;;;5081858;28;20057;-73